Archival Weather

Chicago O'Hare International

Chicago, Illinois (KORD)

Report from: Sunday, October 29, 2023 11:51 AM CDT
Current time: Tuesday, June 18, 2024 6:38 AM CDT

Current weather – Weather history – Daily summaries
Weather forecast

Temperature7.8°C (46.0°F)
Wind chill4.6°C (40.2°F)
Dew point2.8°C (37.0°F)
Winds 11 kts (5.7 m/s, 12.7 mph) North (350°)
Visibility10 mi. (16.1 km)
Clouds Ceiling: Broken clouds 2,700 ft. (823 m)
Overcast 5,000 ft. (1,524 m)
Altimeter30.14 in.Hg (1021 mB)
Relative humidity71 %
Density altitude-1,016 ft. (-310 m)
Sea-level pressure102.1 kPa (1021 mB, 30.15 in.Hg)
Remarks System requires maintenance
Automated weather observing station with precipitation discriminator
Flight conditions Marginal Visual Meteorological Conditions
Raw dataKORD 291651Z 35011KT 10SM BKN027 OVC050 08/03 A3014 RMK AO2 SLP210 T00780028 $
An error has occurred. This application may no longer respond until reloaded. Reload 🗙